Buenos Aires, Argentina

4:15 PM ART en Agosto 23, 2014 (GMT -0300)
Colegiales | Change Station
CLOSE
Current Station
Estación meteorológica personal
Location: Buenos Aires, BUENOS AIRES
Altura: 62 ft
Estaciones meteorológicas cercanas

Alt 62 ft 34.58 °S, 58.45 °W | Updated 46 seconds ago

Partly Cloudy
Parcialmente nublado
87.6 ° F
Sensación térmica 99 ° F
N
0.0
Viento Variable Viento desde Norte
Gusts 0.0 mph

Hoy
Alta -- | Baja -- ° F
--% Posibilidad de precipitaciones
Ayer
Alta -- | Baja -- ° F
Precip. -- pul
7:24 AM 6:28 PM
Creciente menguante, 3% visible
Presión 29.47 pul
Visibilidad 6.2 Millas
Nubes Baja 4500 ft
Índice de calor 99 ° F
Punto de rocío 77 ° F
Humedad 70%
Precipitaciones 0.00 pul
Espesor de la nieve No disponible.
UV 2 de una escala de 12
Polen No disponible.
Calidad del aire No disponible.
Flu Activity No disponible.
METAR SABE 231900Z VRB05KT 9999 FEW045TCU 25/21 Q0998

More Conditions Fewer Conditions

Presión 29.47 pul
Visibilidad 6.2 Millas
Nubes Baja 4500 ft
Índice de calor 99 ° F
Punto de rocío 77 ° F
Humedad 70%
Precipitaciones 0.00 pul
Espesor de la nieve No disponible.
UV 2 de una escala de 12
Polen No disponible.
Calidad del aire No disponible.
Flu Activity No disponible.
METAR SABE 231900Z VRB05KT 9999 FEW045TCU 25/21 Q0998

More Conditions Fewer Conditions

10-Day Weather Forecast

Almanac

Astronomía

Aug. 23, 2014 Salida Puesta
Hora real 7:24 AM ART 6:28 PM ART
Crepúsculo civil 6:58 AM ART 6:54 PM ART
Crepúsculo náutico 6:29 AM ART 7:23 PM ART
Crepúsculo astronómico 5:59 AM ART 7:53 PM ART
Luna 5:55 AM ART 4:59 PM ART
Horas de luz 11h 56m
Horas de luz
11h 04m
Tomorrow will be 1m 58s longer.
Creciente menguante, 3% of the Moon is Illuminated
Hoy
Creciente menguante
Ago 25
Nueva
Sep 2
Cuarto creciente
Sep 8
Luna llena
Sep 15
Cuarto menguante

Extremos de hoy

Máximos del país Bajas del país

Community

WunderPhotos

Upload Photos

1,746,585 ¡fotos cargadas!

WunderBlogs® & News

Nearby

Calidad del aire

Not available.

Grosos de nieve

Not available.

Actividad de terremotos

Ciudad Distance Mag. Tiempo y dato
No hay informes recientes de la actividad sísmica.
Magnitud mínima muestra es 2,5.

Temperaturas de aguas costeras

Lugar Temperatura
Sin partes meteorológicos de las estaciones

Estaciones meteorológicas cercanas